sensor_id;sensor_type;location;lat;lon;timestamp;pressure;altitude;pressure_sealevel;temperature
74750;BMP280;63269;53.330;-6.288;2023-04-06T00:01:24;101171.53;;;19.93
74750;BMP280;63269;53.330;-6.288;2023-04-06T00:03:50;101158.94;;;19.93
74750;BMP280;63269;53.330;-6.288;2023-04-06T00:06:16;101164.72;;;19.92
74750;BMP280;63269;53.330;-6.288;2023-04-06T00:08:41;101164.72;;;19.92
74750;BMP280;63269;53.330;-6.288;2023-04-06T00:11:07;101160.13;;;19.92
74750;BMP280;63269;53.330;-6.288;2023-04-06T00:13:32;101159.78;;;19.90
74750;BMP280;63269;53.330;-6.288;2023-04-06T00:15:58;101154.47;;;19.90
74750;BMP280;63269;53.330;-6.288;2023-04-06T00:18:23;101154.47;;;19.90
74750;BMP280;63269;53.330;-6.288;2023-04-06T00:20:49;101149.16;;;19.90
74750;BMP280;63269;53.330;-6.288;2023-04-06T00:23:16;101149.16;;;19.90
74750;BMP280;63269;53.330;-6.288;2023-04-06T00:25:41;101138.50;;;19.90
74750;BMP280;63269;53.330;-6.288;2023-04-06T00:28:07;101146.47;;;19.90
74750;BMP280;63269;53.330;-6.288;2023-04-06T00:30:32;101146.47;;;19.90
74750;BMP280;63269;53.330;-6.288;2023-04-06T00:32:57;101140.81;;;19.88
74750;BMP280;63269;53.330;-6.288;2023-04-06T00:35:23;101120.69;;;19.87
74750;BMP280;63269;53.330;-6.288;2023-04-06T00:37:48;101120.69;;;19.87
74750;BMP280;63269;53.330;-6.288;2023-04-06T00:40:14;101124.06;;;19.88
74750;BMP280;63269;53.330;-6.288;2023-04-06T00:42:40;101124.06;;;19.88
74750;BMP280;63269;53.330;-6.288;2023-04-06T00:45:07;101135.50;;;19.88
74750;BMP280;63269;53.330;-6.288;2023-04-06T00:47:33;101140.06;;;19.88
74750;BMP280;63269;53.330;-6.288;2023-04-06T00:49:58;101136.69;;;19.87
74750;BMP280;63269;53.330;-6.288;2023-04-06T00:52:24;101142.00;;;19.87
74750;BMP280;63269;53.330;-6.288;2023-04-06T00:54:50;101136.69;;;19.87
74750;BMP280;63269;53.330;-6.288;2023-04-06T00:57:16;101142.00;;;19.87
74750;BMP280;63269;53.330;-6.288;2023-04-06T00:59:42;101142.00;;;19.87
74750;BMP280;63269;53.330;-6.288;2023-04-06T01:02:08;101133.28;;;19.87
74750;BMP280;63269;53.330;-6.288;2023-04-06T01:04:34;101133.28;;;19.87
74750;BMP280;63269;53.330;-6.288;2023-04-06T01:06:59;101131.75;;;19.86
74750;BMP280;63269;53.330;-6.288;2023-04-06T01:09:27;101145.81;;;19.86
74750;BMP280;63269;53.330;-6.288;2023-04-06T01:11:53;101146.22;;;19.85
74750;BMP280;63269;53.330;-6.288;2023-04-06T01:14:18;101151.53;;;19.85
74750;BMP280;63269;53.330;-6.288;2023-04-06T01:16:44;101151.53;;;19.85
74750;BMP280;63269;53.330;-6.288;2023-04-06T01:19:11;101145.47;;;19.84
74750;BMP280;63269;53.330;-6.288;2023-04-06T01:21:38;101152.69;;;19.84
74750;BMP280;63269;53.330;-6.288;2023-04-06T01:24:04;101154.66;;;19.83
74750;BMP280;63269;53.330;-6.288;2023-04-06T01:26:30;101150.03;;;19.84
74750;BMP280;63269;53.330;-6.288;2023-04-06T01:28:56;101142.81;;;19.84
74750;BMP280;63269;53.330;-6.288;2023-04-06T01:31:22;101142.81;;;19.84
74750;BMP280;63269;53.330;-6.288;2023-04-06T01:33:48;101151.25;;;19.83
74750;BMP280;63269;53.330;-6.288;2023-04-06T01:36:14;101146.66;;;19.83
74750;BMP280;63269;53.330;-6.288;2023-04-06T01:38:39;101138.66;;;19.83
74750;BMP280;63269;53.330;-6.288;2023-04-06T01:41:06;101138.66;;;19.83
74750;BMP280;63269;53.330;-6.288;2023-04-06T01:43:32;101139.06;;;19.82
74750;BMP280;63269;53.330;-6.288;2023-04-06T01:45:57;101130.34;;;19.81
74750;BMP280;63269;53.330;-6.288;2023-04-06T01:48:23;101131.84;;;19.82
74750;BMP280;63269;53.330;-6.288;2023-04-06T01:50:48;101131.84;;;19.82
74750;BMP280;63269;53.330;-6.288;2023-04-06T01:53:14;101124.25;;;19.81
74750;BMP280;63269;53.330;-6.288;2023-04-06T01:55:40;101120.84;;;19.80
74750;BMP280;63269;53.330;-6.288;2023-04-06T01:58:06;101120.84;;;19.80
74750;BMP280;63269;53.330;-6.288;2023-04-06T02:00:31;101118.94;;;19.81
74750;BMP280;63269;53.330;-6.288;2023-04-06T02:02:56;101118.94;;;19.81
74750;BMP280;63269;53.330;-6.288;2023-04-06T02:05:22;101118.94;;;19.81
74750;BMP280;63269;53.330;-6.288;2023-04-06T02:07:48;101128.84;;;19.80
74750;BMP280;63269;53.330;-6.288;2023-04-06T02:10:14;101128.84;;;19.80
74750;BMP280;63269;53.330;-6.288;2023-04-06T02:12:40;101120.06;;;19.80
74750;BMP280;63269;53.330;-6.288;2023-04-06T02:15:06;101130.72;;;19.80
74750;BMP280;63269;53.330;-6.288;2023-04-06T02:17:31;101130.72;;;19.80
74750;BMP280;63269;53.330;-6.288;2023-04-06T02:19:56;101116.66;;;19.79
74750;BMP280;63269;53.330;-6.288;2023-04-06T02:22:22;101112.53;;;19.78
74750;BMP280;63269;53.330;-6.288;2023-04-06T02:24:47;101108.38;;;19.77
74750;BMP280;63269;53.330;-6.288;2023-04-06T02:27:14;101118.63;;;19.79
74750;BMP280;63269;53.330;-6.288;2023-04-06T02:29:40;101118.63;;;19.79
74750;BMP280;63269;53.330;-6.288;2023-04-06T02:32:05;101115.19;;;19.78
74750;BMP280;63269;53.330;-6.288;2023-04-06T02:34:31;101118.25;;;19.76
74750;BMP280;63269;53.330;-6.288;2023-04-06T02:36:56;101115.59;;;19.76
74750;BMP280;63269;53.330;-6.288;2023-04-06T02:39:22;101112.19;;;19.76
74750;BMP280;63269;53.330;-6.288;2023-04-06T02:41:47;101117.53;;;19.76
74750;BMP280;63269;53.330;-6.288;2023-04-06T02:44:13;101120.19;;;19.76
74750;BMP280;63269;53.330;-6.288;2023-04-06T02:46:38;101114.53;;;19.74
74750;BMP280;63269;53.330;-6.288;2023-04-06T02:49:04;101114.53;;;19.74
74750;BMP280;63269;53.330;-6.288;2023-04-06T02:51:29;101128.56;;;19.74
74750;BMP280;63269;53.330;-6.288;2023-04-06T02:53:54;101127.84;;;19.74
74750;BMP280;63269;53.330;-6.288;2023-04-06T02:56:20;101127.84;;;19.74
74750;BMP280;63269;53.330;-6.288;2023-04-06T02:58:46;101129.00;;;19.73
74750;BMP280;63269;53.330;-6.288;2023-04-06T03:01:12;101122.91;;;19.72
74750;BMP280;63269;53.330;-6.288;2023-04-06T03:03:37;101122.91;;;19.72
74750;BMP280;63269;53.330;-6.288;2023-04-06T03:06:03;101116.44;;;19.73
74750;BMP280;63269;53.330;-6.288;2023-04-06T03:08:28;101116.44;;;19.73
74750;BMP280;63269;53.330;-6.288;2023-04-06T03:10:54;101122.16;;;19.72
74750;BMP280;63269;53.330;-6.288;2023-04-06T03:13:20;101116.09;;;19.71
74750;BMP280;63269;53.330;-6.288;2023-04-06T03:15:45;101116.09;;;19.71
74750;BMP280;63269;53.330;-6.288;2023-04-06T03:18:11;101116.09;;;19.71
74750;BMP280;63269;53.330;-6.288;2023-04-06T03:20:36;101115.78;;;19.69
74750;BMP280;63269;53.330;-6.288;2023-04-06T03:23:01;101120.66;;;19.71
74750;BMP280;63269;53.330;-6.288;2023-04-06T03:25:27;101115.34;;;19.71
74750;BMP280;63269;53.330;-6.288;2023-04-06T03:27:52;101125.25;;;19.70
74750;BMP280;63269;53.330;-6.288;2023-04-06T03:30:18;101124.53;;;19.70
74750;BMP280;63269;53.330;-6.288;2023-04-06T03:32:44;101124.53;;;19.70
74750;BMP280;63269;53.330;-6.288;2023-04-06T03:35:09;101124.53;;;19.70
74750;BMP280;63269;53.330;-6.288;2023-04-06T03:37:35;101126.41;;;19.69
74750;BMP280;63269;53.330;-6.288;2023-04-06T03:40:01;101123.75;;;19.69
74750;BMP280;63269;53.330;-6.288;2023-04-06T03:42:26;101125.69;;;19.69
74750;BMP280;63269;53.330;-6.288;2023-04-06T03:44:52;101127.19;;;19.70
74750;BMP280;63269;53.330;-6.288;2023-04-06T03:47:17;101131.75;;;19.69
74750;BMP280;63269;53.330;-6.288;2023-04-06T03:49:43;101124.91;;;19.68
74750;BMP280;63269;53.330;-6.288;2023-04-06T03:52:08;101124.91;;;19.68
74750;BMP280;63269;53.330;-6.288;2023-04-06T03:54:34;101134.41;;;19.69
74750;BMP280;63269;53.330;-6.288;2023-04-06T03:56:59;101134.41;;;19.69
74750;BMP280;63269;53.330;-6.288;2023-04-06T03:59:25;101128.75;;;19.67
74750;BMP280;63269;53.330;-6.288;2023-04-06T04:01:51;101128.75;;;19.67
74750;BMP280;63269;53.330;-6.288;2023-04-06T04:04:16;101129.47;;;19.68
74750;BMP280;63269;53.330;-6.288;2023-04-06T04:06:41;101129.47;;;19.68
74750;BMP280;63269;53.330;-6.288;2023-04-06T04:09:07;101136.72;;;19.67
74750;BMP280;63269;53.330;-6.288;2023-04-06T04:11:32;101134.06;;;19.67
74750;BMP280;63269;53.330;-6.288;2023-04-06T04:13:58;101133.28;;;19.67
74750;BMP280;63269;53.330;-6.288;2023-04-06T04:16:23;101133.28;;;19.67
74750;BMP280;63269;53.330;-6.288;2023-04-06T04:18:49;101127.22;;;19.66
74750;BMP280;63269;53.330;-6.288;2023-04-06T04:21:14;101127.22;;;19.66
74750;BMP280;63269;53.330;-6.288;2023-04-06T04:23:40;101129.16;;;19.66
74750;BMP280;63269;53.330;-6.288;2023-04-06T04:26:05;101129.16;;;19.66
74750;BMP280;63269;53.330;-6.288;2023-04-06T04:28:30;101125.75;;;19.65
74750;BMP280;63269;53.330;-6.288;2023-04-06T04:30:56;101125.75;;;19.65
74750;BMP280;63269;53.330;-6.288;2023-04-06T04:33:21;101126.91;;;19.64
74750;BMP280;63269;53.330;-6.288;2023-04-06T04:35:47;101126.91;;;19.64
74750;BMP280;63269;53.330;-6.288;2023-04-06T04:38:12;101131.47;;;19.64
74750;BMP280;63269;53.330;-6.288;2023-04-06T04:40:38;101133.78;;;19.62
74750;BMP280;63269;53.330;-6.288;2023-04-06T04:43:03;101133.78;;;19.62
74750;BMP280;63269;53.330;-6.288;2023-04-06T04:45:28;101140.63;;;19.63
74750;BMP280;63269;53.330;-6.288;2023-04-06T04:47:54;101140.63;;;19.63
74750;BMP280;63269;53.330;-6.288;2023-04-06T04:50:19;101145.97;;;19.63
74750;BMP280;63269;53.330;-6.288;2023-04-06T04:52:45;101152.44;;;19.62
74750;BMP280;63269;53.330;-6.288;2023-04-06T04:55:10;101153.94;;;19.63
74750;BMP280;63269;53.330;-6.288;2023-04-06T04:57:36;101153.94;;;19.63
74750;BMP280;63269;53.330;-6.288;2023-04-06T05:00:01;101151.66;;;19.61
74750;BMP280;63269;53.330;-6.288;2023-04-06T05:02:27;101156.25;;;19.61
74750;BMP280;63269;53.330;-6.288;2023-04-06T05:04:52;101160.41;;;19.62
74750;BMP280;63269;53.330;-6.288;2023-04-06T05:07:18;101155.53;;;19.60
74750;BMP280;63269;53.330;-6.288;2023-04-06T05:09:45;101153.59;;;19.61
74750;BMP280;63269;53.330;-6.288;2023-04-06T05:12:10;101155.53;;;19.60
74750;BMP280;63269;53.330;-6.288;2023-04-06T05:14:36;101155.53;;;19.60
74750;BMP280;63269;53.330;-6.288;2023-04-06T05:17:01;101157.06;;;19.57
74750;BMP280;63269;53.330;-6.288;2023-04-06T05:19:27;101166.22;;;19.56
74750;BMP280;63269;53.330;-6.288;2023-04-06T05:21:52;101163.13;;;19.58
74750;BMP280;63269;53.330;-6.288;2023-04-06T05:24:18;101163.13;;;19.58
74750;BMP280;63269;53.330;-6.288;2023-04-06T05:26:43;101169.63;;;19.57
74750;BMP280;63269;53.330;-6.288;2023-04-06T05:29:10;101168.88;;;19.56
74750;BMP280;63269;53.330;-6.288;2023-04-06T05:31:36;101176.84;;;19.56
74750;BMP280;63269;53.330;-6.288;2023-04-06T05:34:01;101174.19;;;19.56
74750;BMP280;63269;53.330;-6.288;2023-04-06T05:36:26;101177.28;;;19.55
74750;BMP280;63269;53.330;-6.288;2023-04-06T05:38:52;101173.09;;;19.54
74750;BMP280;63269;53.330;-6.288;2023-04-06T05:41:18;101187.94;;;19.55
74750;BMP280;63269;53.330;-6.288;2023-04-06T05:43:43;101187.94;;;19.55
74750;BMP280;63269;53.330;-6.288;2023-04-06T05:46:10;101195.16;;;19.54
74750;BMP280;63269;53.330;-6.288;2023-04-06T05:48:35;101195.16;;;19.54
74750;BMP280;63269;53.330;-6.288;2023-04-06T05:51:01;101178.84;;;19.52
74750;BMP280;63269;53.330;-6.288;2023-04-06T05:53:27;101192.13;;;19.52
74750;BMP280;63269;53.330;-6.288;2023-04-06T05:55:54;101192.13;;;19.52
74750;BMP280;63269;53.330;-6.288;2023-04-06T05:58:19;101197.16;;;19.50
74750;BMP280;63269;53.330;-6.288;2023-04-06T06:00:45;101197.16;;;19.50
74750;BMP280;63269;53.330;-6.288;2023-04-06T06:03:12;101200.56;;;19.51
74750;BMP280;63269;53.330;-6.288;2023-04-06T06:05:38;101200.56;;;19.51
74750;BMP280;63269;53.330;-6.288;2023-04-06T06:08:03;101206.28;;;19.49
74750;BMP280;63269;53.330;-6.288;2023-04-06T06:10:28;101206.28;;;19.49
74750;BMP280;63269;53.330;-6.288;2023-04-06T06:12:54;101201.34;;;19.48
74750;BMP280;63269;53.330;-6.288;2023-04-06T06:15:20;101201.34;;;19.48
74750;BMP280;63269;53.330;-6.288;2023-04-06T06:17:45;101209.34;;;19.48
74750;BMP280;63269;53.330;-6.288;2023-04-06T06:20:11;101211.69;;;19.46
74750;BMP280;63269;53.330;-6.288;2023-04-06T06:22:36;101217.31;;;19.48
74750;BMP280;63269;53.330;-6.288;2023-04-06T06:25:02;101216.25;;;19.45
74750;BMP280;63269;53.330;-6.288;2023-04-06T06:27:28;101217.75;;;19.46
74750;BMP280;63269;53.330;-6.288;2023-04-06T06:29:53;101227.66;;;19.46
74750;BMP280;63269;53.330;-6.288;2023-04-06T06:32:18;101227.66;;;19.46
74750;BMP280;63269;53.330;-6.288;2023-04-06T06:34:44;101221.56;;;19.45
74750;BMP280;63269;53.330;-6.288;2023-04-06T06:37:10;101230.31;;;19.46
74750;BMP280;63269;53.330;-6.288;2023-04-06T06:39:35;101232.19;;;19.45
74750;BMP280;63269;53.330;-6.288;2023-04-06T06:42:00;101232.19;;;19.45
74750;BMP280;63269;53.330;-6.288;2023-04-06T06:44:27;101236.78;;;19.45
74750;BMP280;63269;53.330;-6.288;2023-04-06T06:46:52;101234.13;;;19.45
74750;BMP280;63269;53.330;-6.288;2023-04-06T06:49:18;101234.13;;;19.45
74750;BMP280;63269;53.330;-6.288;2023-04-06T06:51:44;101226.53;;;19.43
74750;BMP280;63269;53.330;-6.288;2023-04-06T06:54:10;101226.53;;;19.43
74750;BMP280;63269;53.330;-6.288;2023-04-06T06:56:36;101231.09;;;19.43
74750;BMP280;63269;53.330;-6.288;2023-04-06T06:59:03;101231.09;;;19.43
74750;BMP280;63269;53.330;-6.288;2023-04-06T07:01:29;101245.16;;;19.43
74750;BMP280;63269;53.330;-6.288;2023-04-06T07:03:54;101245.16;;;19.43
74750;BMP280;63269;53.330;-6.288;2023-04-06T07:06:20;101243.34;;;19.40
74750;BMP280;63269;53.330;-6.288;2023-04-06T07:08:46;101246.34;;;19.42
74750;BMP280;63269;53.330;-6.288;2023-04-06T07:11:11;101255.13;;;19.39
74750;BMP280;63269;53.330;-6.288;2023-04-06T07:13:37;101253.97;;;19.40
74750;BMP280;63269;53.330;-6.288;2023-04-06T07:16:02;101253.97;;;19.40
74750;BMP280;63269;53.330;-6.288;2023-04-06T07:18:28;101251.31;;;19.40
74750;BMP280;63269;53.330;-6.288;2023-04-06T07:20:53;101261.97;;;19.40
74750;BMP280;63269;53.330;-6.288;2023-04-06T07:23:18;101259.31;;;19.40
74750;BMP280;63269;53.330;-6.288;2023-04-06T07:25:44;101252.47;;;19.39
74750;BMP280;63269;53.330;-6.288;2023-04-06T07:28:09;101263.84;;;19.40
74750;BMP280;63269;53.330;-6.288;2023-04-06T07:30:36;101263.84;;;19.40
74750;BMP280;63269;53.330;-6.288;2023-04-06T07:33:02;101258.22;;;19.38
74750;BMP280;63269;53.330;-6.288;2023-04-06T07:35:27;101266.19;;;19.38
74750;BMP280;63269;53.330;-6.288;2023-04-06T07:37:55;101272.97;;;19.38
74750;BMP280;63269;53.330;-6.288;2023-04-06T07:40:21;101272.97;;;19.38
74750;BMP280;63269;53.330;-6.288;2023-04-06T07:42:46;101268.84;;;19.38
74750;BMP280;63269;53.330;-6.288;2023-04-06T07:45:11;101280.28;;;19.34
74750;BMP280;63269;53.330;-6.288;2023-04-06T07:47:37;101283.28;;;19.36
74750;BMP280;63269;53.330;-6.288;2023-04-06T07:50:02;101279.13;;;19.35
74750;BMP280;63269;53.330;-6.288;2023-04-06T07:52:28;101280.63;;;19.36
74750;BMP280;63269;53.330;-6.288;2023-04-06T07:54:53;101279.91;;;19.36
74750;BMP280;63269;53.330;-6.288;2023-04-06T07:57:19;101279.91;;;19.36
74750;BMP280;63269;53.330;-6.288;2023-04-06T07:59:44;101281.38;;;19.37
74750;BMP280;63269;53.330;-6.288;2023-04-06T08:02:10;101281.78;;;19.35
74750;BMP280;63269;53.330;-6.288;2023-04-06T08:04:36;101281.78;;;19.35
74750;BMP280;63269;53.330;-6.288;2023-04-06T08:07:01;101284.44;;;19.35
74750;BMP280;63269;53.330;-6.288;2023-04-06T08:09:27;101284.44;;;19.35
74750;BMP280;63269;53.330;-6.288;2023-04-06T08:11:53;101295.09;;;19.35
74750;BMP280;63269;53.330;-6.288;2023-04-06T08:14:18;101295.09;;;19.35
74750;BMP280;63269;53.330;-6.288;2023-04-06T08:16:43;101295.47;;;19.34
74750;BMP280;63269;53.330;-6.288;2023-04-06T08:19:09;101296.66;;;19.33
74750;BMP280;63269;53.330;-6.288;2023-04-06T08:21:35;101304.25;;;19.34
74750;BMP280;63269;53.330;-6.288;2023-04-06T08:24:01;101304.25;;;19.34
74750;BMP280;63269;53.330;-6.288;2023-04-06T08:26:27;101297.44;;;19.33
74750;BMP280;63269;53.330;-6.288;2023-04-06T08:28:53;101295.91;;;19.32
74750;BMP280;63269;53.330;-6.288;2023-04-06T08:31:18;101303.16;;;19.32
74750;BMP280;63269;53.330;-6.288;2023-04-06T08:33:44;101309.22;;;19.32
74750;BMP280;63269;53.330;-6.288;2023-04-06T08:36:13;101319.84;;;19.32
74750;BMP280;63269;53.330;-6.288;2023-04-06T08:38:40;101321.38;;;19.33
74750;BMP280;63269;53.330;-6.288;2023-04-06T08:41:12;101315.28;;;19.33
74750;BMP280;63269;53.330;-6.288;2023-04-06T08:43:44;101315.28;;;19.33
74750;BMP280;63269;53.330;-6.288;2023-04-06T08:46:12;101321.00;;;19.31
74750;BMP280;63269;53.330;-6.288;2023-04-06T08:48:42;101321.00;;;19.31
74750;BMP280;63269;53.330;-6.288;2023-04-06T08:51:08;101324.44;;;19.32
74750;BMP280;63269;53.330;-6.288;2023-04-06T08:53:34;101329.38;;;19.30
74750;BMP280;63269;53.330;-6.288;2023-04-06T08:56:00;101338.13;;;19.30
74750;BMP280;63269;53.330;-6.288;2023-04-06T08:58:28;101332.81;;;19.30
74750;BMP280;63269;53.330;-6.288;2023-04-06T09:00:54;101332.81;;;19.30
74750;BMP280;63269;53.330;-6.288;2023-04-06T09:03:21;101339.28;;;19.29
74750;BMP280;63269;53.330;-6.288;2023-04-06T09:05:47;101349.50;;;19.31
74750;BMP280;63269;53.330;-6.288;2023-04-06T09:08:13;101353.69;;;19.32
74750;BMP280;63269;53.330;-6.288;2023-04-06T09:10:40;101349.50;;;19.31
74750;BMP280;63269;53.330;-6.288;2023-04-06T09:13:06;101352.16;;;19.31
74750;BMP280;63269;53.330;-6.288;2023-04-06T09:15:33;101355.22;;;19.29
74750;BMP280;63269;53.330;-6.288;2023-04-06T09:17:58;101355.22;;;19.29
74750;BMP280;63269;53.330;-6.288;2023-04-06T09:20:24;101365.16;;;19.29
74750;BMP280;63269;53.330;-6.288;2023-04-06T09:22:56;101367.38;;;19.30
74750;BMP280;63269;53.330;-6.288;2023-04-06T09:25:23;101367.38;;;19.30
74750;BMP280;63269;53.330;-6.288;2023-04-06T09:27:58;101379.53;;;19.31
74750;BMP280;63269;53.330;-6.288;2023-04-06T09:30:24;101379.19;;;19.29
74750;BMP280;63269;53.330;-6.288;2023-04-06T09:32:52;101379.19;;;19.29
74750;BMP280;63269;53.330;-6.288;2023-04-06T09:35:18;101389.09;;;19.29
74750;BMP280;63269;53.330;-6.288;2023-04-06T09:37:47;101393.22;;;19.30
74750;BMP280;63269;53.330;-6.288;2023-04-06T09:40:13;101390.56;;;19.30
74750;BMP280;63269;53.330;-6.288;2023-04-06T09:42:42;101392.06;;;19.31
74750;BMP280;63269;53.330;-6.288;2023-04-06T09:45:08;101395.88;;;19.30
74750;BMP280;63269;53.330;-6.288;2023-04-06T09:47:36;101395.88;;;19.30
74750;BMP280;63269;53.330;-6.288;2023-04-06T09:50:02;101399.31;;;19.30
74750;BMP280;63269;53.330;-6.288;2023-04-06T09:52:41;101403.84;;;19.30
74750;BMP280;63269;53.330;-6.288;2023-04-06T09:55:08;101402.41;;;19.29
74750;BMP280;63269;53.330;-6.288;2023-04-06T09:57:53;101404.63;;;19.30
74750;BMP280;63269;53.330;-6.288;2023-04-06T10:00:22;101408.44;;;19.29
74750;BMP280;63269;53.330;-6.288;2023-04-06T10:03:07;101408.44;;;19.29
74750;BMP280;63269;53.330;-6.288;2023-04-06T10:05:46;101401.63;;;19.28
74750;BMP280;63269;53.330;-6.288;2023-04-06T10:08:16;101415.69;;;19.29
74750;BMP280;63269;53.330;-6.288;2023-04-06T10:10:42;101409.59;;;19.28
74750;BMP280;63269;53.330;-6.288;2023-04-06T10:13:10;101409.59;;;19.28
74750;BMP280;63269;53.330;-6.288;2023-04-06T10:15:38;101414.19;;;19.28
74750;BMP280;63269;53.330;-6.288;2023-04-06T10:18:05;101416.09;;;19.27
74750;BMP280;63269;53.330;-6.288;2023-04-06T10:20:43;101421.34;;;19.31
74750;BMP280;63269;53.330;-6.288;2023-04-06T10:23:12;101421.34;;;19.31
74750;BMP280;63269;53.330;-6.288;2023-04-06T10:25:55;101418.81;;;19.24
74750;BMP280;63269;53.330;-6.288;2023-04-06T10:28:21;101427.09;;;19.26
74750;BMP280;63269;53.330;-6.288;2023-04-06T10:30:47;101430.13;;;19.28
74750;BMP280;63269;53.330;-6.288;2023-04-06T10:33:18;101428.22;;;19.28
74750;BMP280;63269;53.330;-6.288;2023-04-06T10:35:44;101428.22;;;19.28
74750;BMP280;63269;53.330;-6.288;2023-04-06T10:38:09;101420.63;;;19.27
74750;BMP280;63269;53.330;-6.288;2023-04-06T10:40:38;101428.63;;;19.27
74750;BMP280;63269;53.330;-6.288;2023-04-06T10:43:12;101446.84;;;19.28
74750;BMP280;63269;53.330;-6.288;2023-04-06T10:45:39;101444.97;;;19.29
74750;BMP280;63269;53.330;-6.288;2023-04-06T10:48:15;101449.09;;;19.30
74750;BMP280;63269;53.330;-6.288;2023-04-06T10:50:42;101449.09;;;19.30
74750;BMP280;63269;53.330;-6.288;2023-04-06T10:53:08;101449.50;;;19.28
74750;BMP280;63269;53.330;-6.288;2023-04-06T10:55:34;101451.41;;;19.28
74750;BMP280;63269;53.330;-6.288;2023-04-06T10:57:59;101450.28;;;19.29
74750;BMP280;63269;53.330;-6.288;2023-04-06T11:00:25;101448.34;;;19.29
74750;BMP280;63269;53.330;-6.288;2023-04-06T11:02:51;101451.41;;;19.28
74750;BMP280;63269;53.330;-6.288;2023-04-06T11:05:17;101451.41;;;19.28
74750;BMP280;63269;53.330;-6.288;2023-04-06T11:07:44;101452.16;;;19.28
74750;BMP280;63269;53.330;-6.288;2023-04-06T11:10:09;101452.94;;;19.29
74750;BMP280;63269;53.330;-6.288;2023-04-06T11:12:35;101452.94;;;19.29
74750;BMP280;63269;53.330;-6.288;2023-04-06T11:15:03;101465.47;;;19.28
74750;BMP280;63269;53.330;-6.288;2023-04-06T11:17:32;101460.16;;;19.28
74750;BMP280;63269;53.330;-6.288;2023-04-06T11:19:58;101462.81;;;19.28
74750;BMP280;63269;53.330;-6.288;2023-04-06T11:22:25;101460.91;;;19.29
74750;BMP280;63269;53.330;-6.288;2023-04-06T11:24:51;101463.59;;;19.29
74750;BMP280;63269;53.330;-6.288;2023-04-06T11:27:18;101463.59;;;19.29
74750;BMP280;63269;53.330;-6.288;2023-04-06T11:29:44;101467.38;;;19.28
74750;BMP280;63269;53.330;-6.288;2023-04-06T11:32:11;101466.63;;;19.27
74750;BMP280;63269;53.330;-6.288;2023-04-06T11:34:46;101469.28;;;19.27
74750;BMP280;63269;53.330;-6.288;2023-04-06T11:37:12;101466.25;;;19.29
74750;BMP280;63269;53.330;-6.288;2023-04-06T11:39:39;101466.25;;;19.29
74750;BMP280;63269;53.330;-6.288;2023-04-06T11:42:05;101466.25;;;19.29
74750;BMP280;63269;53.330;-6.288;2023-04-06T11:44:42;101477.28;;;19.27
74750;BMP280;63269;53.330;-6.288;2023-04-06T11:47:11;101477.28;;;19.27
74750;BMP280;63269;53.330;-6.288;2023-04-06T11:49:42;101470.03;;;19.28
74750;BMP280;63269;53.330;-6.288;2023-04-06T11:54:43;101484.44;;;19.30
74750;BMP280;63269;53.330;-6.288;2023-04-06T11:57:09;101476.88;;;19.29
74750;BMP280;63269;53.330;-6.288;2023-04-06T11:59:35;101481.78;;;19.30
74750;BMP280;63269;53.330;-6.288;2023-04-06T12:02:02;101481.78;;;19.30
74750;BMP280;63269;53.330;-6.288;2023-04-06T12:04:28;101487.84;;;19.31
74750;BMP280;63269;53.330;-6.288;2023-04-06T12:06:53;101487.84;;;19.31
74750;BMP280;63269;53.330;-6.288;2023-04-06T12:09:19;101486.31;;;19.30
74750;BMP280;63269;53.330;-6.288;2023-04-06T12:11:44;101484.88;;;19.29
74750;BMP280;63269;53.330;-6.288;2023-04-06T12:14:10;101481.78;;;19.30
74750;BMP280;63269;53.330;-6.288;2023-04-06T12:16:36;101485.56;;;19.29
74750;BMP280;63269;53.330;-6.288;2023-04-06T12:19:02;101484.44;;;19.30
74750;BMP280;63269;53.330;-6.288;2023-04-06T12:21:28;101486.31;;;19.30
74750;BMP280;63269;53.330;-6.288;2023-04-06T12:23:54;101488.97;;;19.30
74750;BMP280;63269;53.330;-6.288;2023-04-06T12:26:20;101483.66;;;19.30
74750;BMP280;63269;53.330;-6.288;2023-04-06T12:28:46;101487.09;;;19.30
74750;BMP280;63269;53.330;-6.288;2023-04-06T12:31:19;101487.09;;;19.30
74750;BMP280;63269;53.330;-6.288;2023-04-06T12:33:49;101488.97;;;19.30
74750;BMP280;63269;53.330;-6.288;2023-04-06T12:36:15;101488.97;;;19.30
74750;BMP280;63269;53.330;-6.288;2023-04-06T12:38:44;101486.75;;;19.28
74750;BMP280;63269;53.330;-6.288;2023-04-06T12:41:11;101486.75;;;19.28
74750;BMP280;63269;53.330;-6.288;2023-04-06T12:43:37;101482.91;;;19.29
74750;BMP280;63269;53.330;-6.288;2023-04-06T12:46:02;101488.97;;;19.30
74750;BMP280;63269;53.330;-6.288;2023-04-06T12:48:28;101488.97;;;19.30
74750;BMP280;63269;53.330;-6.288;2023-04-06T12:50:54;101488.25;;;19.29
74750;BMP280;63269;53.330;-6.288;2023-04-06T12:53:20;101495.81;;;19.31
74750;BMP280;63269;53.330;-6.288;2023-04-06T12:55:46;101503.06;;;19.30
74750;BMP280;63269;53.330;-6.288;2023-04-06T12:58:11;101503.06;;;19.30
74750;BMP280;63269;53.330;-6.288;2023-04-06T13:00:37;101496.56;;;19.31
74750;BMP280;63269;53.330;-6.288;2023-04-06T13:03:02;101504.56;;;19.31
74750;BMP280;63269;53.330;-6.288;2023-04-06T13:05:27;101504.56;;;19.31
74750;BMP280;63269;53.330;-6.288;2023-04-06T13:07:53;101504.19;;;19.29
74750;BMP280;63269;53.330;-6.288;2023-04-06T13:10:18;101520.16;;;19.29
74750;BMP280;63269;53.330;-6.288;2023-04-06T13:12:44;101520.16;;;19.29
74750;BMP280;63269;53.330;-6.288;2023-04-06T13:15:10;101515.59;;;19.30
74750;BMP280;63269;53.330;-6.288;2023-04-06T13:17:35;101512.53;;;19.31
74750;BMP280;63269;53.330;-6.288;2023-04-06T13:20:01;101508.38;;;19.30
74750;BMP280;63269;53.330;-6.288;2023-04-06T13:22:26;101504.94;;;19.30
74750;BMP280;63269;53.330;-6.288;2023-04-06T13:24:51;101520.91;;;19.30
74750;BMP280;63269;53.330;-6.288;2023-04-06T13:27:17;101520.91;;;19.30
74750;BMP280;63269;53.330;-6.288;2023-04-06T13:29:43;101520.50;;;19.31
74750;BMP280;63269;53.330;-6.288;2023-04-06T13:32:08;101515.19;;;19.31
74750;BMP280;63269;53.330;-6.288;2023-04-06T13:34:35;101507.97;;;19.32
74750;BMP280;63269;53.330;-6.288;2023-04-06T13:37:01;101507.97;;;19.32
74750;BMP280;63269;53.330;-6.288;2023-04-06T13:39:26;101517.47;;;19.33
74750;BMP280;63269;53.330;-6.288;2023-04-06T13:41:53;101517.47;;;19.33